Time;durP1;ratioP1;P1;durP2;ratioP2;P2;SDS_P1;SDS_P2;PMS_P1;PMS_P2;Temp;Humidity;BMP_temperature;BMP_pressure;BME280_temperature;BME280_humidity;BME280_pressure;Samples;Min_cycle;Max_cycle;Signal;HPM_P1;HPM_P2
2023/01/14 00:01:06;;;;;;;17.35;2.80;;;7.90;99.90;;;;;;6279715;22;20019;-96
2023/01/14 00:03:32;;;;;;;14.63;2.83;;;7.70;99.90;;;;;;6279101;22;20026;-93
2023/01/14 00:06:01;;;;;;;23.10;3.53;;;7.70;99.90;;;;;;6254363;22;20012;-89
2023/01/14 00:08:29;;;;;;;22.33;2.78;;;6.90;99.90;;;;;;6305086;22;20526;-91
2023/01/14 00:10:55;;;;;;;11.02;2.03;;;6.90;99.90;;;;;;6279170;22;20696;-92
2023/01/14 00:13:21;;;;;;;19.90;2.63;;;8.10;99.90;;;;;;6305836;22;20023;-92
2023/01/14 00:16:01;;;;;;;27.45;3.10;;;8.10;99.90;;;;;;6279631;22;20019;-91
2023/01/14 00:18:27;;;;;;;16.88;2.60;;;7.00;99.90;;;;;;6278869;22;20339;-90
2023/01/14 00:21:12;;;;;;;19.30;2.58;;;7.80;99.90;;;;;;6304891;22;20015;-90
2023/01/14 00:23:39;;;;;;;26.15;3.35;;;7.90;99.90;;;;;;6278496;22;20011;-93
2023/01/14 00:26:15;;;;;;;25.45;2.88;;;8.20;99.90;;;;;;6278668;22;20027;-88
2023/01/14 00:28:41;;;;;;;17.92;2.78;;;6.80;99.90;;;;;;6306475;22;20458;-92
2023/01/14 00:31:12;;;;;;;26.05;3.20;;;7.70;99.90;;;;;;6253364;22;20007;-90
2023/01/14 00:33:40;;;;;;;15.93;2.80;;;6.90;99.90;;;;;;6278824;22;20019;-93
2023/01/14 00:36:08;;;;;;;26.65;3.67;;;7.90;99.90;;;;;;6306760;22;20599;-92
2023/01/14 00:38:37;;;;;;;21.55;2.60;;;6.90;99.90;;;;;;6279720;22;20008;-94
2023/01/14 00:41:14;;;;;;;20.73;2.63;;;8.00;99.90;;;;;;6252659;22;20427;-92
2023/01/14 00:43:46;;;;;;;16.23;2.83;;;7.00;99.90;;;;;;6280522;22;20067;-96
2023/01/14 00:46:15;;;;;;;22.60;2.30;;;8.20;99.90;;;;;;6279655;22;20516;-91
2023/01/14 00:48:42;;;;;;;19.83;3.05;;;7.90;99.90;;;;;;6278288;22;20023;-91
2023/01/14 00:51:11;;;;;;;17.55;1.83;;;8.10;99.90;;;;;;6252977;22;20011;-92
2023/01/14 00:53:39;;;;;;;12.50;2.00;;;7.10;99.90;;;;;;6253639;22;20019;-92
2023/01/14 00:56:05;;;;;;;20.48;3.83;;;8.00;99.90;;;;;;6252887;22;20098;-95
2023/01/14 00:58:32;;;;;;;21.83;3.05;;;7.00;99.90;;;;;;6252651;22;20436;-93
2023/01/14 01:01:01;;;;;;;19.85;2.45;;;8.00;99.90;;;;;;6278837;22;20070;-92
2023/01/14 01:03:26;;;;;;;21.27;2.75;;;8.20;99.90;;;;;;6278512;22;20023;-91
2023/01/14 01:05:53;;;;;;;20.65;2.53;;;8.10;99.90;;;;;;6279062;22;20025;-91
2023/01/14 01:08:22;;;;;;;25.17;3.75;;;7.60;99.90;;;;;;6252921;22;20022;-91
2023/01/14 01:10:52;;;;;;;16.40;2.72;;;8.00;99.90;;;;;;6278431;22;20064;-92
2023/01/14 01:13:18;;;;;;;15.55;2.55;;;8.00;99.90;;;;;;6252985;22;20023;-89
2023/01/14 01:15:44;;;;;;;19.48;3.15;;;7.60;99.90;;;;;;6277759;22;20344;-91
2023/01/14 01:18:12;;;;;;;23.42;2.20;;;7.80;99.90;;;;;;6278552;22;20115;-94
2023/01/14 01:20:38;;;;;;;20.42;3.88;;;8.00;99.90;;;;;;6254557;22;20019;-91
2023/01/14 01:23:04;;;;;;;18.33;3.13;;;7.50;99.90;;;;;;6279208;22;20018;-92
2023/01/14 01:25:30;;;;;;;16.60;2.70;;;7.80;99.90;;;;;;6306502;22;20505;-94
2023/01/14 01:27:57;;;;;;;21.33;2.58;;;8.00;99.90;;;;;;6305506;22;20347;-91
2023/01/14 01:30:24;;;;;;;15.25;2.47;;;7.80;99.90;;;;;;6306252;22;20069;-93
2023/01/14 01:32:53;;;;;;;18.70;2.78;;;8.00;99.90;;;;;;6278687;22;20086;-95
2023/01/14 01:35:19;;;;;;;18.48;2.97;;;7.00;99.90;;;;;;6255435;22;20015;-90
2023/01/14 01:37:45;;;;;;;16.70;3.00;;;7.80;99.90;;;;;;6253596;22;20011;-91
2023/01/14 01:40:12;;;;;;;16.17;2.97;;;7.80;99.90;;;;;;6280131;22;20070;-91
2023/01/14 01:42:54;;;;;;;20.15;3.00;;;6.60;99.90;;;;;;6252189;22;20037;-92
2023/01/14 01:45:43;;;;;;;18.98;2.67;;;7.80;99.90;;;;;;6305958;22;20058;-90
2023/01/14 01:48:20;;;;;;;22.63;2.55;;;6.60;99.90;;;;;;6305778;22;20045;-90
2023/01/14 01:50:51;;;;;;;28.23;3.83;;;7.80;99.90;;;;;;6278283;22;20055;-91
2023/01/14 01:53:17;;;;;;;24.55;3.95;;;7.60;99.90;;;;;;6277680;22;20015;-90
2023/01/14 01:55:48;;;;;;;28.25;3.22;;;7.30;99.90;;;;;;6278666;22;20122;-90
2023/01/14 01:58:14;;;;;;;19.33;2.90;;;7.70;99.90;;;;;;6252830;22;20015;-93
2023/01/14 02:00:40;;;;;;;16.23;2.05;;;7.40;99.90;;;;;;6278745;22;20022;-94
2023/01/14 02:03:13;;;;;;;21.45;3.55;;;6.60;99.90;;;;;;6278326;22;20023;-94
2023/01/14 02:05:39;;;;;;;23.95;2.90;;;7.50;99.90;;;;;;6306533;22;20023;-90
2023/01/14 02:26:18;;;;;;;22.75;2.78;;;6.60;99.90;;;;;;6293402;22;20054;-90
2023/01/14 02:29:12;;;;;;;22.48;4.13;;;6.50;99.90;;;;;;6277396;22;20054;-95
2023/01/14 02:31:52;;;;;;;17.95;3.75;;;6.50;99.90;;;;;;6263894;22;20011;-90
2023/01/14 02:34:34;;;;;;;18.00;2.60;;;7.60;99.90;;;;;;6276925;22;20019;-91
2023/01/14 02:37:02;;;;;;;12.98;2.35;;;6.50;99.90;;;;;;6251759;22;20093;-88
2023/01/14 02:39:44;;;;;;;21.50;3.00;;;7.40;99.90;;;;;;6277992;22;20015;-92
2023/01/14 02:45:26;;;;;;;33.75;3.88;;;6.40;99.90;;;;;;6276741;22;20023;-93
2023/01/14 02:47:52;;;;;;;21.27;2.90;;;7.70;99.90;;;;;;6251564;22;20019;-91
2023/01/14 02:50:19;;;;;;;22.25;3.08;;;6.40;99.90;;;;;;6276692;22;20016;-92
2023/01/14 02:52:45;;;;;;;25.73;3.25;;;7.30;99.90;;;;;;6304071;22;20053;-90
2023/01/14 02:55:31;;;;;;;28.58;3.22;;;7.50;99.90;;;;;;6277244;22;20029;-93
2023/01/14 02:58:05;;;;;;;26.60;3.63;;;6.30;99.90;;;;;;6251450;22;20114;-91
2023/01/14 03:00:58;;;;;;;34.40;3.78;;;6.30;99.90;;;;;;6276327;22;20019;-89
2023/01/14 03:03:51;;;;;;;25.10;3.90;;;6.30;99.90;;;;;;6276997;22;20069;-93
2023/01/14 03:06:44;;;;;;;21.48;3.13;;;7.20;99.90;;;;;;6277305;22;20011;-91
2023/01/14 03:09:24;;;;;;;25.98;3.35;;;6.30;99.90;;;;;;6277295;22;20021;-91
2023/01/14 03:12:02;;;;;;;25.48;2.53;;;7.10;99.90;;;;;;6305316;22;20413;-91
2023/01/14 03:14:38;;;;;;;27.23;3.40;;;7.20;99.90;;;;;;6277016;22;20026;-90
2023/01/14 03:17:41;;;;;;;26.38;3.47;;;7.20;99.90;;;;;;6303993;22;20050;-90
2023/01/14 03:20:07;;;;;;;25.38;3.15;;;6.20;99.90;;;;;;6304011;22;20062;-91
2023/01/14 03:22:34;;;;;;;27.20;3.58;;;5.50;99.90;;;;;;6251011;22;20019;-90
2023/01/14 03:25:02;;;;;;;25.30;3.33;;;7.40;99.90;;;;;;6275731;22;20023;-90
2023/01/14 03:27:32;;;;;;;22.75;3.78;;;7.30;99.90;;;;;;6276416;22;20111;-89
2023/01/14 03:30:04;;;;;;;22.05;3.47;;;7.00;99.90;;;;;;6250890;22;20511;-88
2023/01/14 03:32:39;;;;;;;25.90;3.45;;;7.00;99.90;;;;;;6250983;22;20468;-92
2023/01/14 03:35:16;;;;;;;23.40;4.13;;;6.80;99.90;;;;;;6251200;22;20704;-91
2023/01/14 03:37:53;;;;;;;23.30;3.15;;;5.80;99.90;;;;;;6276721;22;20030;-89
2023/01/14 03:40:22;;;;;;;21.23;3.25;;;6.80;99.90;;;;;;6250571;22;20511;-90
2023/01/14 03:42:53;;;;;;;22.05;2.97;;;7.00;99.90;;;;;;6276578;22;20025;-90
2023/01/14 03:45:26;;;;;;;25.95;3.85;;;6.10;99.90;;;;;;6276979;22;20526;-94
2023/01/14 03:47:52;;;;;;;24.13;3.38;;;5.70;99.90;;;;;;6277504;22;20090;-88
2023/01/14 03:51:01;;;;;;;23.77;2.88;;;6.80;99.90;;;;;;6303925;22;20065;-91
2023/01/14 03:53:45;;;;;;;28.63;3.78;;;5.80;99.90;;;;;;6213936;23;20020;-93
2023/01/14 03:56:24;;;;;;;26.45;3.28;;;5.70;99.90;;;;;;6214087;23;20055;-92
2023/01/14 03:59:08;;;;;;;25.83;3.45;;;6.60;99.90;;;;;;6213614;23;20028;-90
2023/01/14 04:01:49;;;;;;;30.15;3.67;;;5.70;99.90;;;;;;6213903;23;20466;-89
2023/01/14 04:04:15;;;;;;;22.58;3.42;;;6.50;99.90;;;;;;6239032;23;20024;-92
2023/01/14 04:06:41;;;;;;;32.10;3.30;;;6.40;99.90;;;;;;6215424;23;20024;-91
2023/01/14 04:09:09;;;;;;;24.23;3.67;;;6.50;99.90;;;;;;6215541;23;20027;-90
2023/01/14 04:11:35;;;;;;;22.80;3.03;;;6.70;99.90;;;;;;6191364;23;20031;-93
2023/01/14 04:16:45;;;;;;;20.23;2.95;;;6.10;99.90;;;;;;6215756;23;20523;-92
2023/01/14 04:19:11;;;;;;;21.25;3.30;;;6.50;99.90;;;;;;6241526;23;20020;-90
2023/01/14 04:21:37;;;;;;;20.02;3.55;;;6.70;99.90;;;;;;6216400;23;20099;-92
2023/01/14 04:24:02;;;;;;;19.25;2.60;;;6.40;99.90;;;;;;6241292;23;20023;-89
2023/01/14 04:26:28;;;;;;;24.95;2.88;;;6.00;99.90;;;;;;6220259;22;20379;-90
2023/01/14 04:28:55;;;;;;;17.10;2.83;;;5.60;99.90;;;;;;6273349;22;20353;-91
2023/01/14 04:31:21;;;;;;;18.67;3.03;;;6.50;99.90;;;;;;6247495;22;20015;-88
2023/01/14 04:33:46;;;;;;;22.00;3.17;;;6.10;99.90;;;;;;6272866;22;20484;-88
2023/01/14 04:36:12;;;;;;;20.92;3.25;;;6.20;99.90;;;;;;6273179;22;20054;-91
2023/01/14 04:38:38;;;;;;;30.92;3.78;;;5.70;99.90;;;;;;6247846;22;20020;-91
2023/01/14 04:41:06;;;;;;;22.10;3.03;;;6.60;99.90;;;;;;6274607;22;20336;-91
2023/01/14 04:43:32;;;;;;;19.60;2.53;;;5.90;99.90;;;;;;6247631;22;20024;-91
2023/01/14 04:45:58;;;;;;;25.27;2.67;;;6.70;99.90;;;;;;6273669;22;20023;-92
2023/01/14 04:48:25;;;;;;;23.30;3.38;;;6.40;99.90;;;;;;6273371;22;20023;-93
2023/01/14 04:50:51;;;;;;;27.00;3.30;;;5.70;99.90;;;;;;6274756;22;20024;-90
2023/01/14 04:53:21;;;;;;;24.65;3.20;;;6.50;99.90;;;;;;6274491;22;20065;-89
2023/01/14 04:55:49;;;;;;;22.08;3.00;;;5.30;99.90;;;;;;6246941;22;20129;-91
2023/01/14 04:58:17;;;;;;;29.67;3.42;;;6.30;99.90;;;;;;6272646;22;20153;-90
2023/01/14 05:00:43;;;;;;;28.13;3.05;;;6.50;99.90;;;;;;6247350;22;20034;-91
2023/01/14 05:03:11;;;;;;;25.33;3.80;;;6.30;99.90;;;;;;6272697;22;20077;-88
2023/01/14 05:05:37;;;;;;;27.92;3.60;;;6.40;99.90;;;;;;6248371;22;20047;-91
2023/01/14 05:08:05;;;;;;;24.67;3.25;;;5.90;99.90;;;;;;6273141;22;20413;-89
2023/01/14 05:10:31;;;;;;;23.55;3.33;;;5.20;99.90;;;;;;6272801;22;20031;-90
2023/01/14 05:12:57;;;;;;;16.83;2.50;;;6.50;99.90;;;;;;6274680;22;20113;-94
2023/01/14 05:15:30;;;;;;;26.73;2.88;;;6.40;99.90;;;;;;6246376;22;20024;-88
2023/01/14 05:17:55;;;;;;;23.83;2.95;;;6.00;99.90;;;;;;6246991;22;20051;-89
2023/01/14 05:20:23;;;;;;;24.55;3.08;;;6.10;99.90;;;;;;6272484;22;20023;-89
2023/01/14 05:22:50;;;;;;;24.80;3.03;;;6.00;99.90;;;;;;6272905;22;20083;-94
2023/01/14 05:25:16;;;;;;;13.70;2.60;;;6.50;99.90;;;;;;6251800;22;20023;-91
2023/01/14 05:27:42;;;;;;;18.30;2.97;;;6.20;99.90;;;;;;6278302;22;20062;-90
2023/01/14 05:30:08;;;;;;;17.83;2.90;;;6.40;99.90;;;;;;6277125;22;20019;-89
2023/01/14 05:32:35;;;;;;;29.63;2.72;;;5.30;99.90;;;;;;6305283;22;20011;-90
2023/01/14 05:35:00;;;;;;;15.55;3.22;;;6.10;99.90;;;;;;6252376;22;20012;-91
2023/01/14 05:37:26;;;;;;;28.95;4.18;;;5.20;99.90;;;;;;6305115;22;20019;-88
2023/01/14 05:39:53;;;;;;;23.15;2.65;;;6.10;99.90;;;;;;6277111;22;20348;-93
2023/01/14 05:47:47;;;;;;;20.85;3.88;;;5.30;99.90;;;;;;6277329;22;20402;-88
2023/01/14 05:50:13;;;;;;;21.48;3.47;;;5.40;99.90;;;;;;6277548;22;20335;-93
2023/01/14 05:52:39;;;;;;;18.48;3.20;;;5.30;99.90;;;;;;6251603;22;20018;-92
2023/01/14 05:55:05;;;;;;;22.50;3.08;;;6.30;99.90;;;;;;6277494;22;20436;-92
2023/01/14 05:57:31;;;;;;;26.77;3.60;;;5.30;99.90;;;;;;6252126;22;20015;-89
2023/01/14 05:59:57;;;;;;;35.30;4.65;;;6.40;99.90;;;;;;6305320;22;20060;-90
2023/01/14 06:07:55;;;;;;;24.75;3.58;;;6.40;99.90;;;;;;6304975;22;20088;-89
2023/01/14 06:10:24;;;;;;;23.25;3.35;;;5.80;99.90;;;;;;6251734;22;20064;-90
2023/01/14 06:12:57;;;;;;;18.80;3.58;;;6.40;99.90;;;;;;6252569;22;20023;-91
2023/01/14 06:15:24;;;;;;;27.35;3.40;;;6.00;99.90;;;;;;6305410;22;20019;-94
2023/01/14 06:17:58;;;;;;;26.70;3.47;;;6.30;99.90;;;;;;6305117;22;20050;-91
2023/01/14 06:20:24;;;;;;;25.50;3.50;;;6.60;99.90;;;;;;6277477;22;20050;-91
2023/01/14 06:22:55;;;;;;;25.63;4.22;;;6.30;99.90;;;;;;6277484;22;20019;-89
2023/01/14 06:25:21;;;;;;;31.77;4.30;;;6.30;99.90;;;;;;6278061;22;20045;-92
2023/01/14 06:27:46;;;;;;;23.63;4.30;;;6.70;99.90;;;;;;6277780;22;20523;-89
2023/01/14 06:32:49;;;;;;;37.35;5.22;;;5.40;99.90;;;;;;6246784;22;20020;-94
2023/01/14 06:35:15;;;;;;;23.55;4.05;;;5.30;99.90;;;;;;6244250;23;20024;-93
2023/01/14 06:37:45;;;;;;;24.67;5.07;;;5.40;99.90;;;;;;6217464;23;20023;-92
2023/01/14 06:40:12;;;;;;;27.02;4.63;;;6.50;99.90;;;;;;6192288;23;20065;-95
2023/01/14 06:42:40;;;;;;;32.58;5.70;;;5.40;99.90;;;;;;6244781;23;20056;-94
2023/01/14 06:45:06;;;;;;;26.80;4.80;;;6.20;99.90;;;;;;6217643;23;20008;-90
2023/01/14 06:47:32;;;;;;;29.73;5.00;;;5.40;99.90;;;;;;6217893;23;20050;-93
2023/01/14 06:49:58;;;;;;;37.22;5.25;;;6.00;99.90;;;;;;6243361;23;20095;-88
2023/01/14 06:52:23;;;;;;;29.33;5.13;;;6.10;99.90;;;;;;6217404;23;20022;-92
2023/01/14 06:54:51;;;;;;;39.38;5.63;;;6.30;99.90;;;;;;6245187;23;20031;-91
2023/01/14 06:57:17;;;;;;;27.38;4.60;;;6.50;99.90;;;;;;6218373;23;20356;-94
2023/01/14 06:59:43;;;;;;;37.00;5.72;;;6.30;99.90;;;;;;6192240;23;20026;-91
2023/01/14 07:02:12;;;;;;;29.20;5.18;;;6.40;99.90;;;;;;6216612;23;20363;-89
2023/01/14 07:04:38;;;;;;;28.90;5.22;;;6.00;99.90;;;;;;6216049;23;20018;-92
2023/01/14 07:07:04;;;;;;;41.85;6.72;;;6.40;99.90;;;;;;6243853;23;20048;-94
2023/01/14 07:09:30;;;;;;;35.25;5.75;;;6.20;99.90;;;;;;6192696;23;20017;-89
2023/01/14 07:11:56;;;;;;;34.70;6.55;;;4.60;99.90;;;;;;6191977;23;20034;-91
2023/01/14 07:14:21;;;;;;;36.15;5.93;;;6.60;99.90;;;;;;6191098;23;20016;-91
2023/01/14 07:16:50;;;;;;;32.40;5.85;;;5.50;99.90;;;;;;6215978;23;20016;-89
2023/01/14 07:19:15;;;;;;;38.03;5.90;;;6.20;99.90;;;;;;6216697;23;20476;-91
2023/01/14 07:22:40;;;;;;;41.28;6.55;;;4.90;99.90;;;;;;6241709;23;20066;-93
2023/01/14 07:28:27;;;;;;;31.83;5.70;;;5.50;99.90;;;;;;6215703;23;20109;-92
2023/01/14 07:31:29;;;;;;;33.47;5.53;;;6.10;99.90;;;;;;6208312;22;20058;-92
2023/01/14 07:34:05;;;;;;;27.50;5.00;;;5.50;99.90;;;;;;6200743;23;20104;-88
2023/01/14 07:36:31;;;;;;;31.48;4.85;;;6.70;99.90;;;;;;6212073;23;20024;-88
2023/01/14 07:38:57;;;;;;;34.40;5.22;;;6.60;99.90;;;;;;6235821;23;20110;-88
2023/01/14 07:41:22;;;;;;;36.42;5.72;;;6.40;99.90;;;;;;6214321;23;20051;-88
2023/01/14 07:43:49;;;;;;;32.08;6.22;;;6.20;99.90;;;;;;6238756;23;20157;-91
2023/01/14 07:46:16;;;;;;;32.13;6.07;;;6.70;99.90;;;;;;6238537;23;20021;-90
2023/01/14 07:48:43;;;;;;;27.33;5.47;;;5.90;99.90;;;;;;6163431;23;20020;-92
2023/01/14 07:51:08;;;;;;;34.80;5.07;;;6.40;99.90;;;;;;6188027;23;20021;-87
2023/01/14 07:53:35;;;;;;;37.72;6.32;;;6.80;99.90;;;;;;6213931;23;20485;-91
2023/01/14 07:56:02;;;;;;;39.17;5.40;;;6.40;99.90;;;;;;6188378;23;20314;-91
2023/01/14 07:58:28;;;;;;;32.50;6.65;;;6.40;99.90;;;;;;6215073;23;20016;-90
2023/01/14 08:00:53;;;;;;;32.85;5.05;;;6.80;99.90;;;;;;6187440;23;20012;-89
2023/01/14 08:03:20;;;;;;;37.85;5.72;;;6.90;99.90;;;;;;6238208;23;20381;-91
2023/01/14 08:05:46;;;;;;;33.60;5.07;;;6.50;99.90;;;;;;6214926;23;20075;-91
2023/01/14 08:08:12;;;;;;;32.28;5.47;;;7.00;99.90;;;;;;6188030;23;20331;-90
2023/01/14 08:10:38;;;;;;;27.45;5.75;;;6.50;99.90;;;;;;6162353;23;20330;-93
2023/01/14 08:13:03;;;;;;;31.02;5.55;;;6.90;99.90;;;;;;6187713;23;20023;-90
2023/01/14 08:15:29;;;;;;;30.48;4.57;;;6.20;99.90;;;;;;6213772;23;20334;-90
2023/01/14 08:17:55;;;;;;;35.97;4.82;;;6.80;99.90;;;;;;6237515;23;20027;-92
2023/01/14 08:20:22;;;;;;;32.95;5.18;;;5.80;99.90;;;;;;6212482;23;20501;-90
2023/01/14 08:22:58;;;;;;;37.17;5.00;;;5.50;99.90;;;;;;6161964;23;20025;-90
2023/01/14 08:25:25;;;;;;;42.08;5.05;;;5.90;99.90;;;;;;6237638;23;20024;-93
2023/01/14 08:27:50;;;;;;;30.38;5.80;;;6.80;99.90;;;;;;6186851;23;20016;-89
2023/01/14 08:30:17;;;;;;;31.17;5.40;;;6.30;99.90;;;;;;6187393;23;20078;-94
2023/01/14 08:32:42;;;;;;;35.67;4.60;;;5.80;99.90;;;;;;6242710;22;20016;-87
2023/01/14 08:35:08;;;;;;;36.65;5.60;;;6.70;99.90;;;;;;6216573;23;20095;-90
2023/01/14 08:37:35;;;;;;;34.38;4.70;;;5.90;99.90;;;;;;6217742;23;20020;-90
2023/01/14 08:40:00;;;;;;;23.63;3.92;;;7.10;99.90;;;;;;6192185;23;20043;-88
2023/01/14 08:42:26;;;;;;;40.60;4.93;;;6.30;99.90;;;;;;6216437;23;20106;-87
2023/01/14 08:44:52;;;;;;;31.42;4.40;;;6.80;99.90;;;;;;6244256;23;20051;-88
2023/01/14 08:47:18;;;;;;;36.45;5.28;;;5.80;99.90;;;;;;6217333;23;20337;-92
2023/01/14 08:49:44;;;;;;;32.72;4.88;;;7.10;99.90;;;;;;6217573;23;20123;-94
2023/01/14 08:52:18;;;;;;;29.50;4.88;;;6.80;99.90;;;;;;6216675;23;20019;-92
2023/01/14 08:54:51;;;;;;;23.10;4.03;;;5.90;99.90;;;;;;6193142;23;20019;-89
2023/01/14 08:57:17;;;;;;;26.75;4.30;;;6.10;99.90;;;;;;6244860;23;20055;-88
2023/01/14 08:59:42;;;;;;;29.63;4.53;;;6.90;99.90;;;;;;6219667;23;20027;-89
2023/01/14 09:02:14;;;;;;;23.02;4.63;;;5.80;99.90;;;;;;6217715;23;20020;-89
2023/01/14 09:05:01;;;;;;;25.52;3.72;;;6.50;99.90;;;;;;6216930;23;20344;-88
2023/01/14 09:18:41;;;;;;;25.47;3.80;;;6.90;99.90;;;;;;6155373;23;20063;-87
2023/01/14 09:21:08;;;;;;;21.23;3.85;;;6.90;99.90;;;;;;6154649;23;20029;-93
2023/01/14 09:23:33;;;;;;;23.75;3.55;;;6.70;99.90;;;;;;6155534;23;20021;-89
2023/01/14 09:25:59;;;;;;;28.83;3.97;;;5.80;99.90;;;;;;6180434;23;20389;-88
2023/01/14 09:28:25;;;;;;;17.65;4.18;;;7.00;99.90;;;;;;6155588;23;20013;-91
2023/01/14 09:30:50;;;;;;;20.55;4.00;;;7.00;99.90;;;;;;6155849;23;20025;-89
2023/01/14 09:33:16;;;;;;;21.20;3.90;;;6.70;99.90;;;;;;6151397;23;20108;-89
2023/01/14 09:35:42;;;;;;;22.88;5.05;;;6.30;99.90;;;;;;6130197;23;20056;-87
2023/01/14 09:38:11;;;;;;;17.52;4.13;;;6.40;99.90;;;;;;6156619;23;20024;-95
2023/01/14 09:40:39;;;;;;;19.00;3.75;;;6.90;99.90;;;;;;6157217;23;20017;-89
2023/01/14 09:43:38;;;;;;;18.35;3.22;;;6.80;99.90;;;;;;6156730;23;20155;-94
2023/01/14 09:46:04;;;;;;;18.88;3.95;;;6.90;99.90;;;;;;6172916;23;20016;-92
2023/01/14 09:48:31;;;;;;;15.23;3.10;;;6.40;99.90;;;;;;6187036;23;20016;-93
2023/01/14 09:51:14;;;;;;;17.95;2.92;;;7.00;99.90;;;;;;6187537;23;20017;-89
2023/01/14 09:54:25;;;;;;;16.00;3.45;;;5.90;99.90;;;;;;6162730;23;20033;-94
2023/01/14 09:56:54;;;;;;;15.48;3.55;;;5.90;99.90;;;;;;6186688;23;20031;-87
2023/01/14 09:59:57;;;;;;;13.43;3.85;;;6.50;99.90;;;;;;6161272;23;20023;-92
2023/01/14 10:02:53;;;;;;;21.60;2.90;;;5.90;99.90;;;;;;6185707;23;20020;-90
2023/01/14 10:05:28;;;;;;;12.57;2.10;;;6.60;99.90;;;;;;6187984;23;20392;-93
2023/01/14 10:08:21;;;;;;;16.45;2.97;;;5.60;99.90;;;;;;6160177;23;20833;-91
2023/01/14 10:10:48;;;;;;;9.25;1.98;;;5.90;99.90;;;;;;6097248;23;20408;-89
2023/01/14 10:22:51;;;;;;;17.90;3.00;;;5.40;99.90;;;;;;6290289;22;20077;-87
2023/01/14 10:25:28;;;;;;;10.95;2.88;;;6.10;99.90;;;;;;6276434;22;20015;-87
2023/01/14 10:27:57;;;;;;;6.40;2.03;;;6.10;99.90;;;;;;6276539;22;20015;-88
2023/01/14 10:30:32;;;;;;;7.18;1.75;;;6.50;99.90;;;;;;6302989;22;20022;-94
2023/01/14 10:33:03;;;;;;;11.32;4.30;;;7.40;99.90;;;;;;6276098;22;20015;-88
2023/01/14 10:35:34;;;;;;;8.43;2.33;;;7.00;99.90;;;;;;6276369;22;20064;-89
2023/01/14 10:38:21;;;;;;;5.60;1.38;;;7.60;99.90;;;;;;6276092;22;20439;-88
2023/01/14 10:40:47;;;;;;;8.35;1.38;;;7.60;99.90;;;;;;6303893;22;20082;-88
2023/01/14 10:43:33;;;;;;;4.72;1.23;;;7.10;99.90;;;;;;6276799;22;20015;-87
2023/01/14 10:45:59;;;;;;;10.30;2.00;;;7.50;99.90;;;;;;6276726;22;20034;-89
2023/01/14 10:49:16;;;;;;;5.28;2.00;;;7.30;99.90;;;;;;6277074;22;20011;-89
2023/01/14 10:51:49;;;;;;;6.97;1.58;;;6.50;99.90;;;;;;6155087;23;20032;-90
2023/01/14 10:54:28;;;;;;;7.55;1.55;;;6.50;99.90;;;;;;6179626;23;20024;-87
2023/01/14 10:57:29;;;;;;;6.22;1.30;;;7.00;99.90;;;;;;6129981;23;20481;-93
2023/01/14 10:59:59;;;;;;;4.75;1.00;;;6.50;99.90;;;;;;6130365;23;20025;-87
2023/01/14 11:02:51;;;;;;;8.35;1.20;;;7.30;99.90;;;;;;6153876;23;20033;-89
2023/01/14 11:05:42;;;;;;;8.48;1.45;;;7.20;99.90;;;;;;6154642;23;20079;-90
2023/01/14 11:08:57;;;;;;;7.10;1.35;;;6.70;99.90;;;;;;6155058;23;20345;-89
2023/01/14 11:11:52;;;;;;;;;;;;;;;;;;;;;
2023/01/14 11:14:40;;;;;;;7.40;1.33;;;6.70;99.90;;;;;;6157982;23;20083;-89
2023/01/14 11:17:27;;;;;;;5.55;1.73;;;6.70;99.90;;;;;;6157279;23;20033;-89
2023/01/14 11:20:23;;;;;;;6.40;1.17;;;6.70;99.90;;;;;;6132192;23;20100;-86
2023/01/14 11:23:17;;;;;;;4.90;1.10;;;6.80;99.90;;;;;;6156696;23;20017;-89
2023/01/14 11:25:50;;;;;;;4.63;1.05;;;6.80;99.90;;;;;;6162908;23;20029;-90
2023/01/14 11:28:16;;;;;;;4.25;1.00;;;7.40;99.90;;;;;;6232435;22;20020;-88
2023/01/14 11:30:45;;;;;;;3.40;1.10;;;7.60;99.90;;;;;;6253837;22;20027;-88
2023/01/14 11:33:27;;;;;;;5.43;1.40;;;8.00;99.90;;;;;;6279161;22;20460;-95
2023/01/14 11:36:10;;;;;;;5.68;1.50;;;6.80;99.90;;;;;;6279105;22;20023;-90
2023/01/14 11:39:00;;;;;;;7.35;1.60;;;6.80;99.90;;;;;;6255121;22;20372;-88
2023/01/14 11:41:43;;;;;;;4.93;1.25;;;6.80;99.90;;;;;;6254549;22;20023;-92
2023/01/14 11:44:09;;;;;;;7.13;1.30;;;7.80;99.90;;;;;;6254007;22;20102;-93
2023/01/14 11:47:05;;;;;;;8.88;1.58;;;6.80;99.90;;;;;;6278658;22;20047;-95
2023/01/14 11:50:35;;;;;;;5.70;1.13;;;6.80;99.90;;;;;;6214585;22;20031;-90
2023/01/14 11:56:15;;;;;;;5.07;1.40;;;6.90;99.90;;;;;;6326168;22;20030;-89
2023/01/14 11:58:44;;;;;;;4.37;1.30;;;6.90;99.90;;;;;;6309182;22;20347;-91
2023/01/14 12:01:15;;;;;;;5.60;1.10;;;6.90;99.90;;;;;;6336487;22;20455;-88
2023/01/14 12:03:59;;;;;;;5.28;1.08;;;8.10;99.90;;;;;;6332038;22;20094;-89
2023/01/14 12:06:49;;;;;;;6.60;1.50;;;6.90;99.90;;;;;;6309962;22;20026;-87
2023/01/14 12:09:55;;;;;;;3.58;0.90;;;6.90;99.90;;;;;;6309752;22;20026;-89
2023/01/14 12:19:03;;;;;;;2.10;0.95;;;7.00;99.90;;;;;;6183554;23;20114;-90
2023/01/14 12:24:53;;;;;;;6.43;1.50;;;7.50;99.90;;;;;;6156162;23;20100;-92
2023/01/14 12:28:06;;;;;;;5.43;1.10;;;7.50;99.90;;;;;;6181342;23;20017;-91
2023/01/14 12:31:08;;;;;;;1.88;0.80;;;7.10;99.90;;;;;;6156972;23;20020;-94
2023/01/14 12:34:04;;;;;;;5.28;0.95;;;7.30;99.90;;;;;;6180426;23;20055;-93
2023/01/14 12:37:13;;;;;;;5.00;1.10;;;7.10;99.90;;;;;;6156387;23;20021;-92
2023/01/14 12:45:59;;;;;;;3.55;1.00;;;6.80;99.90;;;;;;6093606;23;20062;-86
2023/01/14 12:48:26;;;;;;;2.60;0.88;;;7.00;99.90;;;;;;6080197;23;20017;-93
2023/01/14 12:51:20;;;;;;;3.20;0.75;;;8.00;99.90;;;;;;6127104;23;20076;-92
2023/01/14 12:53:55;;;;;;;4.03;1.10;;;7.40;99.90;;;;;;6126970;23;20018;-92
2023/01/14 12:56:30;;;;;;;2.25;0.68;;;8.50;99.90;;;;;;6110935;23;20021;-94
2023/01/14 12:59:03;;;;;;;2.67;0.85;;;8.00;99.90;;;;;;6132308;23;20017;-93
2023/01/14 13:01:38;;;;;;;2.42;0.95;;;8.60;99.90;;;;;;6208520;23;20027;-91
2023/01/14 13:04:38;;;;;;;2.65;0.95;;;7.60;99.90;;;;;;6216686;23;20109;-87
2023/01/14 13:07:06;;;;;;;2.38;0.70;;;7.70;99.90;;;;;;6217064;23;20062;-87
2023/01/14 13:09:46;;;;;;;3.60;0.90;;;8.30;99.90;;;;;;6216096;23;20396;-91
2023/01/14 13:12:28;;;;;;;4.72;0.90;;;8.80;99.90;;;;;;6190851;23;20031;-90
2023/01/14 13:15:30;;;;;;;2.58;1.00;;;7.80;99.90;;;;;;6279040;22;20022;-90
2023/01/14 13:21:54;;;;;;;4.13;0.80;;;7.80;99.90;;;;;;6184486;23;20110;-90
2023/01/14 13:25:25;;;;;;;1.50;0.60;;;8.00;99.90;;;;;;6184654;23;20512;-90
2023/01/14 13:27:56;;;;;;;3.13;0.77;;;7.40;99.90;;;;;;6191714;22;20523;-87
2023/01/14 13:30:32;;;;;;;3.53;0.77;;;8.10;99.90;;;;;;6297327;22;20027;-93
2023/01/14 13:33:06;;;;;;;4.68;0.70;;;8.90;99.90;;;;;;6247739;22;20057;-89
2023/01/14 13:35:43;;;;;;;2.40;0.88;;;9.40;99.90;;;;;;6276259;22;20022;-88
2023/01/14 13:38:28;;;;;;;2.13;0.75;;;8.30;99.90;;;;;;6304516;22;20099;-90
2023/01/14 13:41:08;;;;;;;1.05;0.55;;;9.40;99.90;;;;;;6273525;22;20011;-88
2023/01/14 13:43:49;;;;;;;3.75;0.70;;;9.40;99.90;;;;;;6276824;22;20084;-87
2023/01/14 13:46:23;;;;;;;1.05;0.43;;;9.60;99.90;;;;;;6251849;22;20089;-88
2023/01/14 13:48:53;;;;;;;2.03;0.60;;;9.60;99.90;;;;;;6276710;22;20019;-88
2023/01/14 13:51:38;;;;;;;1.13;0.50;;;9.60;99.90;;;;;;6277403;22;20022;-87
2023/01/14 13:54:10;;;;;;;0.80;0.50;;;9.50;99.90;;;;;;6277464;22;20015;-87
2023/01/14 13:56:51;;;;;;;2.50;0.80;;;9.50;99.90;;;;;;6276936;22;20023;-89
2023/01/14 13:59:41;;;;;;;1.60;0.50;;;8.50;99.90;;;;;;6251388;22;20029;-87
2023/01/14 14:02:41;;;;;;;2.45;0.63;;;9.40;99.90;;;;;;6271403;22;20083;-89
2023/01/14 14:05:32;;;;;;;2.17;0.55;;;8.00;99.90;;;;;;6271679;22;20471;-88
2023/01/14 14:08:09;;;;;;;0.90;0.50;;;8.50;99.90;;;;;;6246747;22;20020;-86
2023/01/14 14:10:42;;;;;;;1.15;0.60;;;8.80;99.90;;;;;;6273271;22;20395;-90
2023/01/14 14:16:24;;;;;;;1.33;0.73;;;8.90;99.90;;;;;;6276166;22;20142;-89
2023/01/14 14:19:10;;;;;;;2.45;0.70;;;9.60;99.90;;;;;;6277787;22;20027;-88
2023/01/14 14:21:47;;;;;;;2.72;0.70;;;9.80;99.90;;;;;;6278092;22;20026;-86
2023/01/14 14:24:41;;;;;;;2.42;0.70;;;9.10;99.90;;;;;;6277063;22;20049;-86
2023/01/14 14:27:12;;;;;;;1.92;0.50;;;9.10;99.90;;;;;;6251481;22;20019;-87
2023/01/14 14:29:40;;;;;;;2.00;0.75;;;9.10;99.90;;;;;;6304477;22;20011;-88
2023/01/14 14:32:15;;;;;;;1.45;0.50;;;9.10;99.90;;;;;;6277051;22;20369;-87
2023/01/14 14:35:11;;;;;;;1.13;0.50;;;10.00;99.90;;;;;;6277893;22;20015;-88
2023/01/14 14:37:37;;;;;;;2.38;0.60;;;9.20;99.90;;;;;;6251526;22;20096;-86
2023/01/14 14:40:15;;;;;;;0.63;0.40;;;10.20;99.90;;;;;;6304391;22;20027;-91
2023/01/14 14:42:47;;;;;;;2.08;0.50;;;9.20;99.90;;;;;;6276675;22;20077;-88
2023/01/14 14:45:49;;;;;;;0.88;0.40;;;9.80;99.90;;;;;;6276344;22;20094;-90
2023/01/14 14:48:34;;;;;;;1.73;0.60;;;9.30;99.90;;;;;;6276653;22;20094;-89
2023/01/14 14:51:14;;;;;;;0.90;0.45;;;9.30;99.90;;;;;;6277153;22;20051;-90
2023/01/14 14:53:44;;;;;;;3.13;0.60;;;9.10;99.90;;;;;;6250904;22;20023;-92